Time;durP1;ratioP1;P1;durP2;ratioP2;P2;SDS_P1;SDS_P2;PMS_P1;PMS_P2;Temp;Humidity;BMP_temperature;BMP_pressure;BME280_temperature;BME280_humidity;BME280_pressure;Samples;Min_cycle;Max_cycle;Signal;HPM_P1;HPM_P2
2021/04/04 00:01:02;;;;;;;18.95;11.28;;;;;;;20.29;26.36;99063.04;1770801;79;21190;-14
2021/04/04 00:03:34;;;;;;;14.80;10.45;;;;;;;20.31;26.37;99069.09;1784375;79;21203;-14
2021/04/04 00:06:02;;;;;;;15.28;10.10;;;;;;;20.35;26.30;99071.86;1774874;79;21149;-14
2021/04/04 00:08:29;;;;;;;18.75;11.10;;;;;;;20.35;26.23;99074.53;1760409;78;21197;-14
2021/04/04 00:10:58;;;;;;;15.88;9.95;;;;;;;20.36;26.15;99077.58;1773811;79;21141;-14
2021/04/04 00:13:26;;;;;;;17.00;10.13;;;;;;;20.36;26.09;99077.58;1755906;79;21200;-15
2021/04/04 00:15:55;;;;;;;14.50;9.30;;;;;;;20.35;26.04;99079.04;1780111;79;21580;-14
2021/04/04 00:18:22;;;;;;;16.65;9.20;;;;;;;20.33;25.87;99083.17;1771266;79;21170;-16
2021/04/04 00:20:51;;;;;;;15.38;9.08;;;;;;;20.31;25.76;99078.45;1694241;83;21161;-14
2021/04/04 00:23:21;;;;;;;16.55;9.65;;;;;;;20.31;25.69;99083.79;1719044;82;21202;-14
2021/04/04 00:25:50;;;;;;;15.85;9.43;;;;;;;20.29;25.64;99089.75;1701887;82;21224;-16
2021/04/04 00:28:20;;;;;;;15.53;9.30;;;;;;;20.27;25.54;99094.34;1724245;82;21208;-14
2021/04/04 00:30:48;;;;;;;18.32;9.93;;;;;;;20.27;25.50;99091.68;1758273;79;21583;-14
2021/04/04 00:33:18;;;;;;;16.52;10.40;;;;;;;20.26;25.45;99087.33;1770087;79;21149;-15
2021/04/04 00:35:46;;;;;;;17.98;10.78;;;;;;;20.25;25.39;99082.95;1772718;79;21260;-17
2021/04/04 00:38:14;;;;;;;20.25;9.98;;;;;;;20.24;25.37;99087.95;1772788;79;21170;-14
2021/04/04 00:40:42;;;;;;;18.75;10.18;;;;;;;20.23;25.32;99082.23;1796619;78;21126;-14
2021/04/04 00:43:11;;;;;;;21.97;12.73;;;;;;;20.21;25.22;99088.19;1767168;79;21205;-15
2021/04/04 00:45:39;;;;;;;27.75;14.25;;;;;;;20.21;25.13;99093.53;1770260;79;21142;-15
2021/04/04 00:48:08;;;;;;;31.95;16.10;;;;;;;20.20;25.07;99100.67;1755767;79;21169;-14
2021/04/04 00:50:38;;;;;;;36.83;18.62;;;;;;;20.20;24.96;99105.18;1784167;79;21694;-17
2021/04/04 00:53:06;;;;;;;27.42;16.25;;;;;;;20.19;24.79;99104.80;1783292;79;21252;-15
2021/04/04 00:55:35;;;;;;;42.15;19.57;;;;;;;20.16;24.76;99109.92;1795061;79;21135;-15
2021/04/04 00:58:04;;;;;;;37.58;19.40;;;;;;;20.15;24.74;99111.39;1782956;79;21592;-15
2021/04/04 01:00:34;;;;;;;36.00;17.90;;;;;;;20.12;24.69;99109.80;1746117;80;21192;-15
2021/04/04 01:03:02;;;;;;;32.28;17.52;;;;;;;20.09;24.69;99111.41;1752749;79;21672;-15
2021/04/04 01:05:36;;;;;;;34.13;17.90;;;;;;;20.07;24.76;99101.30;1774511;79;21129;-14
2021/04/04 01:08:02;;;;;;;36.03;17.30;;;;;;;20.08;24.77;99103.52;1764630;80;21181;-14
2021/04/04 01:10:34;;;;;;;29.92;16.00;;;;;;;20.07;24.74;99105.31;1790721;79;21143;-17
2021/04/04 01:13:45;;;;;;;32.33;16.93;;;;;;;20.04;24.80;99112.27;1778066;79;21600;-16
2021/04/04 01:16:26;;;;;;;34.03;16.50;;;;;;;20.01;24.77;99102.66;1778491;79;21742;-15
2021/04/04 01:19:02;;;;;;;32.10;15.20;;;;;;;19.98;24.89;99106.06;1784980;79;21584;-14
2021/04/04 01:21:34;;;;;;;26.57;15.25;;;;;;;19.97;24.83;99105.69;1747497;79;21627;-14
2021/04/04 01:24:38;;;;;;;30.20;14.95;;;;;;;19.96;24.96;99114.70;1728955;82;21109;-14
2021/04/04 01:27:25;;;;;;;29.70;15.80;;;;;;;19.98;25.04;99107.41;1694948;82;21192;-13
2021/04/04 01:29:52;;;;;;;24.15;15.00;;;;;;;20.01;25.12;99109.34;1719770;82;21189;-16
2021/04/04 01:32:21;;;;;;;28.92;14.83;;;;;;;20.06;25.20;99106.80;1714416;82;21215;-14
2021/04/04 01:34:49;;;;;;;22.05;13.80;;;;;;;20.09;25.39;99106.06;1713922;82;21144;-14
2021/04/04 01:37:16;;;;;;;27.35;14.20;;;;;;;20.08;25.64;99103.02;1782908;78;21193;-13
2021/04/04 01:39:51;;;;;;;25.70;13.83;;;;;;;20.09;25.79;99102.52;1759522;79;21189;-13
2021/04/04 01:42:19;;;;;;;22.40;12.93;;;;;;;20.11;25.86;99104.61;1760199;79;21219;-13
2021/04/04 01:44:46;;;;;;;39.03;20.88;;;;;;;20.13;25.84;99109.33;1793448;78;21237;-14
2021/04/04 01:47:15;;;;;;;31.23;15.53;;;;;;;20.12;25.29;99107.63;1759228;78;21287;-15
2021/04/04 01:49:44;;;;;;;28.57;15.28;;;;;;;20.01;25.50;99109.83;1803698;78;21190;-15
2021/04/04 01:52:12;;;;;;;21.42;13.70;;;;;;;19.94;26.05;99110.81;1716406;81;21187;-13
2021/04/04 01:54:41;;;;;;;31.25;16.20;;;;;;;19.94;26.41;99121.95;1733837;80;21493;-13
2021/04/04 01:57:09;;;;;;;27.70;14.10;;;;;;;19.95;26.60;99120.50;1729149;82;21165;-15
2021/04/04 01:59:37;;;;;;;28.55;14.45;;;;;;;19.98;26.67;99121.59;1732025;80;21244;-14
2021/04/04 02:02:05;;;;;;;24.35;12.90;;;;;;;20.01;26.80;99120.52;1721542;82;21664;-16
2021/04/04 02:04:33;;;;;;;22.48;13.62;;;;;;;20.04;26.92;99122.45;1714089;82;21407;-13
2021/04/04 02:07:01;;;;;;;20.75;12.80;;;;;;;20.06;27.03;99116.15;1756639;79;21181;-13
2021/04/04 02:09:28;;;;;;;21.10;12.80;;;;;;;20.07;27.11;99113.82;1783598;79;21161;-13
2021/04/04 02:11:56;;;;;;;23.12;12.55;;;;;;;20.08;27.15;99115.53;1770206;79;21165;-16
2021/04/04 02:14:24;;;;;;;20.95;11.88;;;;;;;20.08;27.11;99118.20;1743929;79;21118;-13
2021/04/04 02:16:54;;;;;;;22.32;11.48;;;;;;;20.07;27.02;99114.66;1770005;79;21196;-15
2021/04/04 02:19:24;;;;;;;21.87;12.35;;;;;;;20.07;26.96;99114.66;1773804;78;21182;-16
2021/04/04 02:21:56;;;;;;;27.75;12.78;;;;;;;20.08;26.96;99115.53;1742999;81;21220;-13
2021/04/04 02:24:27;;;;;;;21.33;12.50;;;;;;;20.07;26.80;99114.66;1772543;79;21168;-13
2021/04/04 02:26:56;;;;;;;19.80;11.05;;;;;;;20.00;26.43;99112.97;1785268;79;21565;-16
2021/04/04 02:29:24;;;;;;;16.87;10.98;;;;;;;19.90;26.47;99111.17;1773607;79;22285;-13
2021/04/04 02:31:55;;;;;;;18.20;11.03;;;;;;;19.77;26.79;99107.28;1767239;78;21171;-13
2021/04/04 02:34:29;;;;;;;23.57;11.83;;;;;;;19.67;27.19;99103.98;1760539;79;21145;-13
2021/04/04 02:36:57;;;;;;;25.45;12.20;;;;;;;19.67;26.99;99102.66;1782481;79;21207;-14
2021/04/04 02:39:30;;;;;;;20.35;11.68;;;;;;;19.62;26.78;99102.17;1768540;79;21176;-13
2021/04/04 02:41:57;;;;;;;14.98;10.70;;;;;;;19.55;26.94;99092.95;1770989;79;21415;-13
2021/04/04 02:44:29;;;;;;;18.55;10.90;;;;;;;19.47;27.30;99096.22;1756722;79;21167;-13
2021/04/04 02:47:01;;;;;;;19.87;10.58;;;;;;;19.43;27.39;99093.90;1786901;78;21201;-13
2021/04/04 02:49:29;;;;;;;17.05;10.55;;;;;;;19.41;27.29;99094.51;1728326;81;21615;-13
2021/04/04 02:52:01;;;;;;;16.57;10.05;;;;;;;19.39;27.56;99093.79;1694118;83;21221;-13
2021/04/04 02:54:29;;;;;;;21.35;10.60;;;;;;;19.39;27.56;99097.79;1768636;79;21231;-14
2021/04/04 02:56:57;;;;;;;15.10;9.83;;;;;;;19.37;27.36;99093.06;1752521;79;21188;-13
2021/04/04 02:59:35;;;;;;;14.33;9.43;;;;;;;19.33;27.05;99094.25;1771410;79;21130;-15
2021/04/04 03:02:05;;;;;;;17.75;9.55;;;;;;;19.26;27.10;99096.05;1769123;79;21186;-14
2021/04/04 03:04:36;;;;;;;17.95;9.88;;;;;;;19.19;27.13;99098.84;1761989;79;21181;-14
2021/04/04 03:07:07;;;;;;;15.70;9.28;;;;;;;19.13;27.08;99100.63;1794749;79;21573;-13
2021/04/04 03:09:39;;;;;;;13.75;9.43;;;;;;;19.06;27.12;99103.41;1766800;78;21165;-13
2021/04/04 03:12:07;;;;;;;13.85;9.18;;;;;;;18.99;27.28;99102.19;1767355;79;21192;-14
2021/04/04 03:14:36;;;;;;;15.65;9.93;;;;;;;18.93;27.54;99111.02;1774363;79;21782;-14
2021/04/04 03:17:04;;;;;;;14.98;9.03;;;;;;;18.91;27.51;99116.95;1776685;79;21153;-14
2021/04/04 03:19:32;;;;;;;14.38;9.35;;;;;;;18.88;27.54;99118.52;1755067;79;21196;-13
2021/04/04 03:22:00;;;;;;;14.00;8.78;;;;;;;18.89;27.72;99116.69;1745469;79;21640;-16
2021/04/04 03:24:27;;;;;;;15.65;8.25;;;;;;;18.91;27.89;99110.30;1757620;79;21731;-15
2021/04/04 03:26:55;;;;;;;13.00;8.68;;;;;;;18.98;27.92;99117.80;1795644;78;21166;-15
2021/04/04 03:29:22;;;;;;;15.50;9.33;;;;;;;19.03;27.88;99122.30;1750747;80;21192;-14
2021/04/04 03:31:50;;;;;;;14.68;9.00;;;;;;;19.07;27.89;99126.45;1778800;79;21201;-15
2021/04/04 03:34:17;;;;;;;14.10;8.93;;;;;;;19.12;27.86;99126.45;1747250;78;21651;-13
2021/04/04 03:36:45;;;;;;;13.15;8.35;;;;;;;19.19;27.79;99136.67;1772974;79;21099;-13
2021/04/04 03:39:12;;;;;;;12.45;7.95;;;;;;;19.24;27.82;99134.00;1759787;79;21132;-14
2021/04/04 03:41:40;;;;;;;13.08;8.20;;;;;;;19.28;27.67;99134.61;1788073;79;21188;-16
2021/04/04 03:44:07;;;;;;;11.80;7.85;;;;;;;19.26;27.67;99129.39;1739675;79;22005;-16
2021/04/04 03:46:35;;;;;;;11.50;7.47;;;;;;;19.21;27.76;99124.90;1780088;78;21173;-15
2021/04/04 03:49:03;;;;;;;13.28;7.85;;;;;;;19.17;27.96;99131.94;1788914;78;21136;-16
2021/04/04 03:51:31;;;;;;;13.48;7.83;;;;;;;19.13;28.04;99131.30;1792822;79;21157;-13
2021/04/04 03:53:59;;;;;;;11.12;7.42;;;;;;;19.15;28.08;99141.39;1773810;79;21649;-17
2021/04/04 03:56:30;;;;;;;11.68;7.75;;;;;;;19.17;28.14;99142.11;1799561;79;21210;-14
2021/04/04 03:59:00;;;;;;;12.10;7.22;;;;;;;19.21;28.18;99146.23;1771277;79;21170;-14
2021/04/04 04:01:30;;;;;;;10.95;6.72;;;;;;;19.25;28.15;99144.21;1792362;79;21561;-13
2021/04/04 04:03:58;;;;;;;9.55;5.85;;;;;;;19.25;28.10;99146.38;1761153;79;21229;-17
2021/04/04 04:06:29;;;;;;;9.68;6.65;;;;;;;19.22;28.02;99151.95;1772648;79;21153;-13
2021/04/04 04:08:57;;;;;;;12.53;6.22;;;;;;;19.16;28.08;99148.41;1815844;78;22222;-15
2021/04/04 04:11:25;;;;;;;10.43;6.03;;;;;;;19.09;28.25;99156.02;1743477;82;21120;-13
2021/04/04 04:13:53;;;;;;;9.18;5.83;;;;;;;19.05;28.38;99156.39;1722885;82;21201;-16
2021/04/04 04:16:22;;;;;;;7.50;5.45;;;;;;;19.01;28.47;99157.57;1728140;82;21191;-12
2021/04/04 04:18:49;;;;;;;9.35;5.78;;;;;;;19.00;28.62;99159.39;1798457;79;21212;-15
2021/04/04 04:21:17;;;;;;;8.28;5.45;;;;;;;19.03;28.71;99163.63;1797966;79;21219;-12
2021/04/04 04:23:44;;;;;;;7.72;5.35;;;;;;;19.05;28.68;99161.23;1779183;79;21188;-16
2021/04/04 04:26:14;;;;;;;8.35;5.65;;;;;;;19.06;28.74;99163.41;1777495;80;21172;-16
2021/04/04 04:28:42;;;;;;;9.23;5.95;;;;;;;19.07;28.81;99166.45;1798085;79;21188;-13
2021/04/04 04:31:11;;;;;;;6.55;5.17;;;;;;;19.12;28.86;99178.95;1796226;79;21224;-14
2021/04/04 04:33:40;;;;;;;8.45;5.50;;;;;;;19.16;28.84;99173.73;1798730;79;21183;-13
2021/04/04 04:36:09;;;;;;;6.20;4.78;;;;;;;19.20;28.74;99177.89;1775098;79;21152;-15
2021/04/04 04:38:39;;;;;;;6.47;4.50;;;;;;;19.17;28.38;99175.94;1797853;79;21137;-13
2021/04/04 04:41:06;;;;;;;6.25;4.28;;;;;;;19.12;28.59;99176.28;1799605;78;21113;-16
2021/04/04 04:43:34;;;;;;;6.05;4.40;;;;;;;19.09;28.73;99184.52;1771684;79;21156;-16
2021/04/04 04:46:04;;;;;;;5.72;4.40;;;;;;;19.07;28.81;99179.78;1789009;79;21196;-14
2021/04/04 04:48:31;;;;;;;8.13;3.70;;;;;;;19.08;28.91;99186.80;1762611;79;21112;-15
2021/04/04 04:51:00;;;;;;;6.37;4.92;;;;;;;19.09;28.70;99187.17;1798043;79;21139;-15
2021/04/04 04:53:28;;;;;;;6.15;3.70;;;;;;;19.01;28.56;99188.23;1775848;79;21152;-14
2021/04/04 04:56:02;;;;;;;6.53;4.40;;;;;;;18.91;28.56;99179.61;1792730;79;21608;-14
2021/04/04 04:58:32;;;;;;;4.58;3.77;;;;;;;18.82;28.61;99182.91;1767696;80;21144;-14
2021/04/04 05:01:20;;;;;;;6.72;3.95;;;;;;;18.80;28.75;99186.17;1764441;79;21128;-16
2021/04/04 05:03:48;;;;;;;6.80;3.65;;;;;;;18.77;28.91;99181.55;1796862;79;21149;-14
2021/04/04 05:06:17;;;;;;;5.47;3.58;;;;;;;18.73;28.90;99187.11;1801492;78;21197;-15
2021/04/04 05:08:45;;;;;;;3.77;3.37;;;;;;;18.71;29.00;99188.17;1726777;80;21169;-14
2021/04/04 05:11:16;;;;;;;3.75;3.00;;;;;;;18.70;28.99;99190.48;1759455;79;21211;-16
2021/04/04 05:13:43;;;;;;;4.87;3.67;;;;;;;18.64;29.22;99188.26;1750255;81;21606;-17
2021/04/04 05:16:14;;;;;;;4.58;3.50;;;;;;;18.62;29.37;99194.19;1778968;79;21109;-16
2021/04/04 05:18:52;;;;;;;4.00;3.20;;;;;;;18.60;29.50;99193.45;1757757;79;21105;-14
2021/04/04 05:21:27;;;;;;;3.00;2.70;;;;;;;18.60;29.60;99205.45;1765475;79;21141;-15
2021/04/04 05:23:59;;;;;;;;;;;;;;;18.60;29.70;99198.78;1776309;79;22107;-14
2021/04/04 05:26:32;;;;;;;3.52;2.83;;;;;;;18.59;29.82;99195.25;1779245;79;20432;-16
2021/04/04 05:29:09;;;;;;;4.80;3.72;;;;;;;18.61;29.89;99197.80;1777968;79;21140;-17
2021/04/04 05:31:52;;;;;;;4.08;3.12;;;;;;;18.62;29.81;99199.03;1756102;79;21217;-14
2021/04/04 05:34:28;;;;;;;3.92;3.12;;;;;;;18.64;29.92;99208.24;1784443;79;21208;-16
2021/04/04 05:37:02;;;;;;;3.50;3.20;;;;;;;18.67;29.98;99203.53;1772237;79;21224;-14
2021/04/04 05:39:31;;;;;;;5.10;3.33;;;;;;;18.74;29.97;99207.48;1759260;79;21149;-16
2021/04/04 05:42:02;;;;;;;4.28;3.70;;;;;;;18.83;29.97;99215.30;1747816;79;22374;-14
2021/04/04 05:44:51;;;;;;;13.20;3.45;;;;;;;18.90;29.93;99211.21;1779045;79;21188;-15
2021/04/04 05:47:42;;;;;;;3.20;2.87;;;;;;;19.00;29.82;99211.88;1783225;78;21098;-15
2021/04/04 05:50:17;;;;;;;3.85;3.33;;;;;;;19.06;29.90;99214.94;1777259;79;21256;-15
2021/04/04 05:53:01;;;;;;;7.00;3.40;;;;;;;19.13;29.81;99219.30;1773061;78;21565;-14
2021/04/04 05:56:15;;;;;;;4.08;2.80;;;;;;;19.18;29.66;99221.17;1767838;79;21612;-13
2021/04/04 05:59:08;;;;;;;6.10;3.30;;;;;;;19.20;29.26;99217.89;1757902;79;21125;-13
2021/04/04 06:01:50;;;;;;;3.42;3.12;;;;;;;19.22;29.21;99225.78;1767619;79;21130;-13
2021/04/04 06:04:44;;;;;;;4.90;3.27;;;;;;;19.20;29.03;99221.90;1756259;79;21443;-14
2021/04/04 06:07:46;;;;;;;5.72;3.00;;;;;;;19.20;28.94;99235.23;1788710;79;21133;-13
2021/04/04 06:10:35;;;;;;;7.25;3.37;;;;;;;19.17;28.66;99231.95;1786028;79;21104;-13
2021/04/04 06:13:36;;;;;;;7.30;2.60;;;;;;;19.08;28.65;99236.13;1776062;79;21129;-17
2021/04/04 06:16:40;;;;;;;3.98;2.67;;;;;;;19.01;28.70;99232.22;1768576;79;21196;-13
2021/04/04 06:19:39;;;;;;;3.58;2.72;;;;;;;18.92;28.73;99233.77;1775181;79;21195;-15
2021/04/04 06:22:29;;;;;;;9.13;2.62;;;;;;;18.81;28.81;99235.86;1762184;79;21639;-13
2021/04/04 06:25:04;;;;;;;4.22;2.50;;;;;;;18.73;28.81;99243.56;1784402;79;21172;-13
2021/04/04 06:27:43;;;;;;;3.90;2.70;;;;;;;18.63;28.89;99239.37;1766465;79;21257;-15
2021/04/04 06:30:46;;;;;;;4.20;2.60;;;;;;;18.57;29.01;99242.48;1776060;79;21557;-16
2021/04/04 06:33:23;;;;;;;4.53;2.83;;;;;;;18.53;29.12;99246.34;1771913;79;22230;-13
2021/04/04 06:36:05;;;;;;;3.17;2.37;;;;;;;18.51;29.20;99244.27;1762566;78;22539;-14
2021/04/04 06:38:45;;;;;;;2.75;2.55;;;;;;;18.48;29.18;99251.15;1782126;79;21161;-14
2021/04/04 06:41:51;;;;;;;6.72;2.70;;;;;;;18.47;29.19;99254.27;1764287;79;21173;-14
2021/04/04 06:45:07;;;;;;;2.77;2.10;;;;;;;18.47;29.24;99245.44;1775096;79;21582;-15
2021/04/04 06:47:59;;;;;;;3.55;2.30;;;;;;;18.49;29.21;99255.49;1775423;79;21414;-14
2021/04/04 06:50:30;;;;;;;4.15;2.30;;;;;;;18.37;29.22;99251.89;1780250;79;21197;-14
2021/04/04 06:53:37;;;;;;;2.42;2.22;;;;;;;18.31;29.38;99248.36;1747635;79;21181;-16
2021/04/04 06:56:14;;;;;;;2.37;2.17;;;;;;;18.29;29.37;99257.78;1771460;79;21229;-13
2021/04/04 06:59:31;;;;;;;4.80;2.17;;;;;;;18.23;29.43;99262.69;1751499;79;21144;-17
2021/04/04 07:02:06;;;;;;;2.47;2.12;;;;;;;18.16;29.58;99262.27;1776536;78;21141;-14
2021/04/04 07:05:10;;;;;;;2.75;2.30;;;;;;;18.11;29.80;99265.25;1805835;75;27894;-14
2021/04/04 07:08:06;;;;;;;3.60;2.17;;;;;;;18.04;29.90;99273.75;1786399;77;21597;-13
2021/04/04 07:11:02;;;;;;;5.80;2.58;;;;;;;18.07;29.85;99270.42;1795860;77;22169;-13
2021/04/04 07:13:40;;;;;;;2.42;2.22;;;;;;;18.03;29.90;99272.06;1781525;79;21226;-15
2021/04/04 07:16:54;;;;;;;3.00;2.17;;;;;;;18.06;29.92;99277.19;1793693;77;21071;-14
2021/04/04 07:19:56;;;;;;;12.33;2.60;;;;;;;18.12;29.89;99272.28;1765273;78;21221;-14
2021/04/04 07:22:55;;;;;;;4.97;3.15;;;;;;;18.26;30.66;99278.45;1765203;79;21185;-14
2021/04/04 07:25:48;;;;;;;12.37;3.47;;;;;;;18.46;32.88;99269.91;1796457;77;21205;-15
2021/04/04 07:28:50;;;;;;;6.75;3.15;;;;;;;18.67;34.25;99270.65;1797568;77;21158;-17
2021/04/04 07:31:33;;;;;;;16.70;3.55;;;;;;;18.86;34.53;99277.73;1792717;77;21205;-15
2021/04/04 07:34:16;;;;;;;5.10;3.12;;;;;;;19.06;34.65;99275.39;1767638;79;22298;-15
2021/04/04 07:37:06;;;;;;;6.25;2.83;;;;;;;19.23;34.49;99272.81;1769237;79;21202;-16
2021/04/04 07:39:45;;;;;;;12.07;6.42;;;;;;;19.41;34.28;99272.77;1716067;81;21725;-15
2021/04/04 07:42:24;;;;;;;18.37;6.95;;;;;;;19.59;33.07;99270.53;1757049;79;21188;-16
2021/04/04 07:45:37;;;;;;;8.60;4.95;;;;;;;19.65;31.69;99271.88;1721956;80;21185;-18
2021/04/04 07:48:12;;;;;;;8.50;4.17;;;;;;;19.62;31.01;99275.64;1728510;80;21219;-15
2021/04/04 07:51:07;;;;;;;4.37;3.17;;;;;;;19.57;30.29;99280.94;1744978;81;21676;-15
2021/04/04 07:54:03;;;;;;;18.98;13.05;;;;;;;19.48;29.59;99273.16;1756959;79;21395;-14
2021/04/04 07:56:41;;;;;;;13.43;8.48;;;;;;;19.37;29.57;99277.14;1758907;80;21201;-15
2021/04/04 07:59:17;;;;;;;11.50;7.87;;;;;;;19.29;29.83;99276.36;1764655;80;21137;-14
2021/04/04 08:01:58;;;;;;;7.65;5.37;;;;;;;19.25;30.20;99277.57;1739377;81;21152;-16
2021/04/04 08:04:54;;;;;;;14.68;6.30;;;;;;;19.26;30.25;99276.59;1733141;81;21193;-15
2021/04/04 08:07:48;;;;;;;7.55;4.28;;;;;;;19.18;30.48;99271.84;1699876;82;21233;-17
2021/04/04 08:10:44;;;;;;;8.95;5.15;;;;;;;19.11;30.53;99275.91;1681961;82;21228;-15
2021/04/04 08:13:39;;;;;;;;;;;;;;;19.02;30.58;99280.59;1752532;79;21220;-14
2021/04/04 08:16:26;;;;;;;9.80;4.33;;;;;;;18.99;30.94;99275.48;1740030;79;20238;-15
2021/04/04 08:18:54;;;;;;;8.98;5.12;;;;;;;19.08;31.38;99278.80;1752072;79;21235;-15
2021/04/04 08:21:43;;;;;;;10.65;4.97;;;;;;;19.27;31.50;99275.64;1733570;80;22334;-15
2021/04/04 08:24:15;;;;;;;7.03;3.83;;;;;;;19.47;31.45;99274.14;1738290;80;21208;-16
2021/04/04 08:26:50;;;;;;;7.50;4.10;;;;;;;19.73;31.36;99275.30;1780470;79;21229;-17
2021/04/04 08:29:25;;;;;;;5.22;4.00;;;;;;;19.95;31.23;99274.03;1775013;78;21186;-18
2021/04/04 08:32:04;;;;;;;5.37;3.92;;;;;;;20.17;31.06;99268.36;1761296;79;21449;-15
2021/04/04 08:34:48;;;;;;;3.90;3.50;;;;;;;20.36;30.92;99266.45;1771492;79;21646;-14
2021/04/04 08:37:32;;;;;;;9.60;4.03;;;;;;;20.54;30.75;99264.11;1755637;79;21216;-16
2021/04/04 08:40:04;;;;;;;4.65;3.50;;;;;;;20.72;30.61;99269.84;1781847;79;21629;-15
2021/04/04 08:42:32;;;;;;;3.20;2.83;;;;;;;20.88;30.45;99260.07;1780252;78;21212;-14
2021/04/04 08:45:13;;;;;;;2.40;2.17;;;;;;;20.98;29.03;99267.73;1736127;80;21216;-14
2021/04/04 08:47:46;;;;;;;3.50;2.60;;;;;;;20.94;28.13;99259.58;1719367;80;21224;-14
2021/04/04 08:50:19;;;;;;;2.50;2.17;;;;;;;20.89;27.46;99259.11;1732958;81;21157;-17
2021/04/04 08:53:11;;;;;;;2.10;1.90;;;;;;;20.86;28.07;99260.69;1739570;79;21517;-14
2021/04/04 08:55:39;;;;;;;4.10;2.17;;;;;;;20.87;28.22;99255.72;1723823;80;21161;-15
2021/04/04 08:58:07;;;;;;;2.52;2.30;;;;;;;20.77;28.28;99255.61;1787667;77;21185;-17
2021/04/04 09:00:36;;;;;;;4.33;2.10;;;;;;;20.70;28.83;99247.23;1793778;79;21199;-15
2021/04/04 09:03:23;;;;;;;2.47;2.27;;;;;;;20.71;28.56;99250.28;1756097;79;21173;-15
2021/04/04 09:06:02;;;;;;;3.62;1.87;;;;;;;20.65;28.47;99257.95;1789714;78;21218;-17
2021/04/04 09:08:31;;;;;;;2.50;2.15;;;;;;;20.43;28.35;99262.80;1784872;78;21201;-17
2021/04/04 09:11:02;;;;;;;2.87;2.22;;;;;;;20.19;28.55;99262.41;1775994;79;21184;-16
2021/04/04 09:13:33;;;;;;;20.32;9.98;;;;;;;19.96;28.60;99282.42;1759197;79;21642;-15
2021/04/04 09:16:13;;;;;;;10.23;6.55;;;;;;;19.74;28.28;99287.20;1783114;78;21617;-15
2021/04/04 09:18:50;;;;;;;10.75;6.47;;;;;;;19.50;28.09;99287.23;1781784;77;21198;-15
2021/04/04 09:21:21;;;;;;;10.30;6.40;;;;;;;19.32;28.75;99290.81;1723356;81;21127;-16
2021/04/04 09:23:50;;;;;;;7.72;5.92;;;;;;;19.38;29.22;99288.16;1702331;81;21200;-18
2021/04/04 09:26:25;;;;;;;12.28;5.47;;;;;;;19.54;29.45;99288.72;1689923;82;21504;-18
2021/04/04 09:28:54;;;;;;;7.40;5.35;;;;;;;19.72;29.54;99288.27;1697956;81;21249;-16
2021/04/04 09:31:28;;;;;;;7.85;5.62;;;;;;;19.90;29.59;99284.22;1708203;82;21692;-16
2021/04/04 09:34:11;;;;;;;5.93;5.17;;;;;;;20.09;29.59;99286.80;1701099;82;21159;-14
2021/04/04 09:36:44;;;;;;;7.42;4.83;;;;;;;20.27;29.59;99289.38;1768201;79;21121;-17
2021/04/04 09:39:16;;;;;;;9.13;4.62;;;;;;;20.44;29.57;99284.03;1720417;82;21668;-15
2021/04/04 09:41:46;;;;;;;5.97;4.55;;;;;;;20.59;29.51;99285.97;1694810;82;21660;-16
2021/04/04 09:44:14;;;;;;;4.83;4.33;;;;;;;20.74;29.51;99279.42;1725763;80;21184;-18
2021/04/04 09:46:54;;;;;;;7.45;4.12;;;;;;;20.86;29.44;99278.07;1733523;82;21190;-15
2021/04/04 09:49:48;;;;;;;5.58;4.05;;;;;;;20.98;29.42;99277.09;1695115;82;21636;-16
2021/04/04 09:52:28;;;;;;;4.97;4.12;;;;;;;21.11;29.36;99276.42;1685250;82;21244;-18
2021/04/04 09:55:04;;;;;;;6.55;3.87;;;;;;;21.24;29.32;99275.42;1742463;80;21202;-18
2021/04/04 09:57:55;;;;;;;7.45;3.55;;;;;;;21.36;29.26;99275.73;1747128;80;21579;-16
2021/04/04 10:00:40;;;;;;;4.75;3.45;;;;;;;21.50;29.19;99276.81;1769304;79;21181;-15
2021/04/04 10:03:14;;;;;;;4.80;3.52;;;;;;;21.63;29.13;99263.22;1787828;78;21138;-15
2021/04/04 10:05:44;;;;;;;6.35;5.25;;;;;;;21.75;29.05;99261.33;1785753;79;21206;-15
2021/04/04 10:08:20;;;;;;;10.43;6.70;;;;;;;21.80;27.69;99261.78;1764064;78;21260;-15
2021/04/04 10:10:51;;;;;;;19.02;8.05;;;;;;;21.67;26.97;99260.66;1769933;78;21170;-14
2021/04/04 10:13:25;;;;;;;11.50;6.37;;;;;;;21.45;27.09;99255.38;1750251;79;21214;-14
2021/04/04 10:15:53;;;;;;;7.60;5.62;;;;;;;21.32;27.24;99263.59;1774000;78;21192;-15
2021/04/04 10:18:22;;;;;;;6.92;4.30;;;;;;;21.23;27.22;99258.53;1779993;78;21245;-17
2021/04/04 10:20:55;;;;;;;5.47;4.10;;;;;;;21.17;26.70;99264.88;1736046;80;21229;-17
2021/04/04 10:23:33;;;;;;;13.78;8.73;;;;;;;20.97;26.69;99258.00;1715148;82;21191;-17
2021/04/04 10:26:09;;;;;;;6.60;5.40;;;;;;;20.88;26.64;99258.73;1719568;81;21184;-16
2021/04/04 10:29:01;;;;;;;7.78;4.25;;;;;;;20.83;26.44;99258.26;1726431;81;21131;-14
2021/04/04 10:31:25;;;;;;;3.98;3.58;;;;;;;20.71;26.10;99259.64;1715127;80;23012;-14
2021/04/04 10:34:01;;;;;;;5.78;3.80;;;;;;;20.59;26.07;99251.22;1723597;81;21182;-14
2021/04/04 10:36:29;;;;;;;5.97;3.60;;;;;;;20.52;25.93;99251.36;1735350;81;21135;-14
2021/04/04 10:38:57;;;;;;;4.45;3.37;;;;;;;20.43;26.02;99245.43;1778459;79;21190;-14
2021/04/04 10:41:34;;;;;;;3.98;2.72;;;;;;;20.36;26.19;99252.59;1782450;78;21197;-14
2021/04/04 10:44:02;;;;;;;4.60;2.72;;;;;;;20.29;26.30;99253.19;1777052;78;22389;-16
2021/04/04 10:46:33;;;;;;;2.67;2.45;;;;;;;20.25;26.47;99248.58;1776923;78;21130;-15
2021/04/04 10:49:02;;;;;;;2.60;2.40;;;;;;;20.22;26.64;99252.82;1793544;78;21176;-16
2021/04/04 10:51:31;;;;;;;5.00;2.80;;;;;;;20.20;26.38;99249.42;1800595;78;21197;-15
2021/04/04 10:54:00;;;;;;;2.58;2.37;;;;;;;20.17;26.46;99244.32;1755610;79;21146;-15
2021/04/04 10:56:30;;;;;;;3.20;2.10;;;;;;;20.15;26.65;99244.94;1747736;79;21190;-18
2021/04/04 10:58:59;;;;;;;2.00;1.87;;;;;;;20.14;26.44;99243.22;1775091;78;21574;-15
2021/04/04 11:01:30;;;;;;;2.22;2.08;;;;;;;20.12;26.27;99245.17;1773894;78;21218;-16
2021/04/04 11:03:58;;;;;;;1.80;1.70;;;;;;;20.06;25.99;99234.98;1751308;79;21177;-16
2021/04/04 11:06:25;;;;;;;4.70;1.92;;;;;;;20.02;25.95;99229.89;1737603;80;21180;-14
2021/04/04 11:08:54;;;;;;;2.05;1.87;;;;;;;20.01;25.98;99227.33;1741212;80;21164;-15
2021/04/04 11:11:21;;;;;;;2.62;2.00;;;;;;;20.01;26.30;99228.17;1762081;79;21215;-17
2021/04/04 11:13:54;;;;;;;3.60;2.67;;;;;;;20.04;26.38;99219.92;1777666;78;21164;-16
2021/04/04 11:16:25;;;;;;;3.05;2.52;;;;;;;20.07;26.50;99228.66;1765499;78;21220;-14
2021/04/04 11:18:57;;;;;;;5.17;2.65;;;;;;;20.08;26.71;99225.88;1721145;80;21184;-16
2021/04/04 11:21:38;;;;;;;4.72;2.45;;;;;;;20.10;26.83;99222.59;1778008;78;22136;-15
2021/04/04 11:24:13;;;;;;;3.80;2.60;;;;;;;20.13;26.52;99222.84;1712394;81;21639;-17
2021/04/04 11:26:51;;;;;;;5.58;3.20;;;;;;;20.13;26.48;99210.83;1739096;79;21616;-15
2021/04/04 11:29:21;;;;;;;2.40;2.20;;;;;;;20.13;26.50;99212.16;1762987;78;21136;-27
2021/04/04 11:31:51;;;;;;;2.37;2.17;;;;;;;20.14;26.44;99209.83;1770764;78;21124;-16
2021/04/04 11:34:40;;;;;;;47.93;25.43;;;;;;;20.11;25.90;99212.28;1770856;78;21233;-15
2021/04/04 11:37:19;;;;;;;16.82;10.23;;;;;;;20.06;26.06;99213.63;1755874;79;21191;-16
2021/04/04 11:40:16;;;;;;;10.48;6.60;;;;;;;20.00;26.30;99213.11;1753748;78;21112;-15
2021/04/04 11:42:46;;;;;;;5.05;4.47;;;;;;;19.96;25.98;99217.00;1762933;78;21227;-14
2021/04/04 11:45:14;;;;;;;6.47;4.22;;;;;;;19.89;26.12;99216.25;1763051;78;21585;-16
2021/04/04 11:47:41;;;;;;;4.55;3.45;;;;;;;19.83;26.33;99225.61;1730831;80;22389;-15
2021/04/04 11:50:24;;;;;;;6.28;2.98;;;;;;;19.75;26.66;99242.70;1763507;78;21199;-18
2021/04/04 11:52:54;;;;;;;3.67;2.60;;;;;;;19.49;26.89;99257.53;1760104;80;21179;-16
2021/04/04 11:55:23;;;;;;;2.92;2.62;;;;;;;19.18;27.40;99269.63;1775288;78;21216;-18
2021/04/04 11:57:51;;;;;;;3.33;1.85;;;;;;;18.98;27.97;99278.64;1736286;80;21191;-16
2021/04/04 12:00:24;;;;;;;1.95;1.70;;;;;;;18.52;28.46;99282.77;1775866;78;21295;-16
2021/04/04 12:03:01;;;;;;;2.47;1.87;;;;;;;17.97;29.23;99293.29;1743582;79;21199;-15
2021/04/04 12:05:36;;;;;;;6.95;1.87;;;;;;;17.59;29.79;99290.92;1787799;78;21198;-16
2021/04/04 12:08:04;;;;;;;24.07;19.37;;;;;;;17.46;30.57;99289.56;1781665;79;21184;-19